sensor_id;sensor_type;location;lat;lon;timestamp;pressure;altitude;pressure_sealevel;temperature;humidity
63204;BME280;49297;43.210;27.914;2023-12-22T00:01:09;99711.75;;;4.70;71.17
63204;BME280;49297;43.210;27.914;2023-12-22T00:03:37;99703.06;;;4.70;71.45
63204;BME280;49297;43.210;27.914;2023-12-22T00:06:03;99709.13;;;4.70;71.01
63204;BME280;49297;43.210;27.914;2023-12-22T00:08:28;99694.38;;;4.69;71.03
63204;BME280;49297;43.210;27.914;2023-12-22T00:10:54;99690.94;;;4.69;70.92
63204;BME280;49297;43.210;27.914;2023-12-22T00:13:25;99698.06;;;4.67;70.81
63204;BME280;49297;43.210;27.914;2023-12-22T00:15:50;99694.63;;;4.66;70.55
63204;BME280;49297;43.210;27.914;2023-12-22T00:18:16;99695.13;;;4.60;70.58
63204;BME280;49297;43.210;27.914;2023-12-22T00:20:42;99697.53;;;4.52;70.76
63204;BME280;49297;43.210;27.914;2023-12-22T00:23:08;99684.53;;;4.50;70.89
63204;BME280;49297;43.210;27.914;2023-12-22T00:25:33;99686.34;;;4.50;70.60
63204;BME280;49297;43.210;27.914;2023-12-22T00:27:59;99673.00;;;4.53;70.80
63204;BME280;49297;43.210;27.914;2023-12-22T00:30:25;99673.13;;;4.51;70.67
63204;BME280;49297;43.210;27.914;2023-12-22T00:32:51;99671.81;;;4.46;70.79
63204;BME280;49297;43.210;27.914;2023-12-22T00:35:18;99666.31;;;4.49;70.87
63204;BME280;49297;43.210;27.914;2023-12-22T00:37:44;99665.38;;;4.50;70.79
63204;BME280;49297;43.210;27.914;2023-12-22T00:40:10;99660.38;;;4.47;70.94
63204;BME280;49297;43.210;27.914;2023-12-22T00:42:36;99651.44;;;4.49;70.95
63204;BME280;49297;43.210;27.914;2023-12-22T00:45:02;99651.75;;;4.56;70.93
63204;BME280;49297;43.210;27.914;2023-12-22T00:47:28;99649.59;;;4.61;70.93
63204;BME280;49297;43.210;27.914;2023-12-22T00:49:54;99651.16;;;4.64;70.48
63204;BME280;49297;43.210;27.914;2023-12-22T00:52:20;99655.41;;;4.65;70.76
63204;BME280;49297;43.210;27.914;2023-12-22T00:54:45;99657.91;;;4.66;70.08
63204;BME280;49297;43.210;27.914;2023-12-22T00:57:11;99652.22;;;4.61;69.80
63204;BME280;49297;43.210;27.914;2023-12-22T00:59:37;99645.22;;;4.50;69.94
63204;BME280;49297;43.210;27.914;2023-12-22T01:02:03;99642.25;;;4.44;70.50
63204;BME280;49297;43.210;27.914;2023-12-22T01:04:29;99627.88;;;4.38;70.57
63204;BME280;49297;43.210;27.914;2023-12-22T01:06:55;99632.44;;;4.25;70.82
63204;BME280;49297;43.210;27.914;2023-12-22T01:09:21;99621.84;;;4.15;71.28
63204;BME280;49297;43.210;27.914;2023-12-22T01:11:46;99620.22;;;4.14;71.67
63204;BME280;49297;43.210;27.914;2023-12-22T01:14:13;99635.34;;;4.10;71.47
63204;BME280;49297;43.210;27.914;2023-12-22T01:16:39;99635.44;;;3.97;71.33
63204;BME280;49297;43.210;27.914;2023-12-22T01:19:05;99626.81;;;3.86;71.57
63204;BME280;49297;43.210;27.914;2023-12-22T01:21:34;99624.41;;;3.83;72.02
63204;BME280;49297;43.210;27.914;2023-12-22T01:23:59;99612.66;;;3.77;72.13
63204;BME280;49297;43.210;27.914;2023-12-22T01:26:25;99600.16;;;3.69;73.28
63204;BME280;49297;43.210;27.914;2023-12-22T01:28:51;99602.03;;;3.67;73.02
63204;BME280;49297;43.210;27.914;2023-12-22T01:31:17;99594.34;;;3.66;73.68
63204;BME280;49297;43.210;27.914;2023-12-22T01:33:42;99595.75;;;3.70;73.84
63204;BME280;49297;43.210;27.914;2023-12-22T01:36:08;99580.63;;;3.73;73.84
63204;BME280;49297;43.210;27.914;2023-12-22T01:38:34;99578.84;;;3.74;73.54
63204;BME280;49297;43.210;27.914;2023-12-22T01:40:59;99581.47;;;3.74;73.81
63204;BME280;49297;43.210;27.914;2023-12-22T01:43:25;99563.25;;;3.72;73.28
63204;BME280;49297;43.210;27.914;2023-12-22T01:45:55;99564.69;;;3.65;73.26
63204;BME280;49297;43.210;27.914;2023-12-22T01:48:22;99562.91;;;3.54;73.93
63204;BME280;49297;43.210;27.914;2023-12-22T01:50:53;99564.72;;;3.54;74.07
63204;BME280;49297;43.210;27.914;2023-12-22T01:53:20;99554.25;;;3.54;74.19
63204;BME280;49297;43.210;27.914;2023-12-22T01:55:48;99551.97;;;3.49;75.19
63204;BME280;49297;43.210;27.914;2023-12-22T01:58:14;99539.75;;;3.50;74.95
63204;BME280;49297;43.210;27.914;2023-12-22T02:00:40;99544.00;;;3.51;75.47
63204;BME280;49297;43.210;27.914;2023-12-22T02:03:06;99541.88;;;3.45;74.84
63204;BME280;49297;43.210;27.914;2023-12-22T02:05:33;99539.72;;;3.38;74.93
63204;BME280;49297;43.210;27.914;2023-12-22T02:08:00;99532.00;;;3.37;75.16
63204;BME280;49297;43.210;27.914;2023-12-22T02:10:25;99527.38;;;3.40;75.31
63204;BME280;49297;43.210;27.914;2023-12-22T02:12:51;99530.00;;;3.40;74.80
63204;BME280;49297;43.210;27.914;2023-12-22T02:15:17;99528.56;;;3.36;75.11
63204;BME280;49297;43.210;27.914;2023-12-22T02:17:49;99520.13;;;3.33;74.92
63204;BME280;49297;43.210;27.914;2023-12-22T02:20:17;99520.72;;;3.36;74.77
63204;BME280;49297;43.210;27.914;2023-12-22T02:22:43;99510.00;;;3.39;74.77
63204;BME280;49297;43.210;27.914;2023-12-22T02:25:09;99500.25;;;3.41;74.93
63204;BME280;49297;43.210;27.914;2023-12-22T02:27:40;99501.53;;;3.47;74.71
63204;BME280;49297;43.210;27.914;2023-12-22T02:30:09;99503.00;;;3.51;74.22
63204;BME280;49297;43.210;27.914;2023-12-22T02:32:44;99492.97;;;3.56;74.40
63204;BME280;49297;43.210;27.914;2023-12-22T02:35:16;99480.34;;;3.61;73.74
63204;BME280;49297;43.210;27.914;2023-12-22T02:37:43;99481.63;;;3.67;73.51
63204;BME280;49297;43.210;27.914;2023-12-22T02:40:11;99477.94;;;3.70;73.44
63204;BME280;49297;43.210;27.914;2023-12-22T02:42:38;99472.19;;;3.76;73.68
63204;BME280;49297;43.210;27.914;2023-12-22T02:45:05;99467.06;;;3.86;73.34
63204;BME280;49297;43.210;27.914;2023-12-22T02:47:31;99462.16;;;3.92;73.13
63204;BME280;49297;43.210;27.914;2023-12-22T02:49:58;99460.94;;;3.96;72.34
63204;BME280;49297;43.210;27.914;2023-12-22T02:52:24;99455.19;;;4.03;72.47
63204;BME280;49297;43.210;27.914;2023-12-22T02:54:50;99465.31;;;4.07;72.18
63204;BME280;49297;43.210;27.914;2023-12-22T02:57:16;99448.78;;;4.07;72.24
63204;BME280;49297;43.210;27.914;2023-12-22T02:59:42;99461.88;;;4.07;71.76
63204;BME280;49297;43.210;27.914;2023-12-22T03:02:08;99449.84;;;4.04;71.59
63204;BME280;49297;43.210;27.914;2023-12-22T03:04:33;99452.38;;;3.94;71.29
63204;BME280;49297;43.210;27.914;2023-12-22T03:06:59;99446.00;;;3.87;71.73
63204;BME280;49297;43.210;27.914;2023-12-22T03:09:25;99444.25;;;3.76;71.78
63204;BME280;49297;43.210;27.914;2023-12-22T03:11:51;99437.84;;;3.69;72.73
63204;BME280;49297;43.210;27.914;2023-12-22T03:14:20;99440.84;;;3.65;72.99
63204;BME280;49297;43.210;27.914;2023-12-22T03:16:54;99438.22;;;3.65;73.61
63204;BME280;49297;43.210;27.914;2023-12-22T03:19:20;99427.28;;;3.59;73.61
63204;BME280;49297;43.210;27.914;2023-12-22T03:21:48;99430.53;;;3.52;73.87
63204;BME280;49297;43.210;27.914;2023-12-22T03:24:14;99424.47;;;3.51;73.67
63204;BME280;49297;43.210;27.914;2023-12-22T03:26:40;99424.47;;;3.51;73.77
63204;BME280;49297;43.210;27.914;2023-12-22T03:29:07;99426.94;;;3.53;74.42
63204;BME280;49297;43.210;27.914;2023-12-22T03:31:33;99423.84;;;3.59;74.27
63204;BME280;49297;43.210;27.914;2023-12-22T03:33:58;99415.16;;;3.58;74.67
63204;BME280;49297;43.210;27.914;2023-12-22T03:36:25;99420.13;;;3.61;74.16
63204;BME280;49297;43.210;27.914;2023-12-22T03:38:50;99416.34;;;3.66;74.61
63204;BME280;49297;43.210;27.914;2023-12-22T03:41:16;99415.94;;;3.70;75.07
63204;BME280;49297;43.210;27.914;2023-12-22T03:43:41;99411.97;;;3.76;75.49
63204;BME280;49297;43.210;27.914;2023-12-22T03:46:07;99407.31;;;3.79;74.80
63204;BME280;49297;43.210;27.914;2023-12-22T03:48:33;99406.84;;;3.86;74.88
63204;BME280;49297;43.210;27.914;2023-12-22T03:50:59;99403.00;;;3.90;74.87
63204;BME280;49297;43.210;27.914;2023-12-22T03:53:24;99392.97;;;3.95;74.30
63204;BME280;49297;43.210;27.914;2023-12-22T03:55:50;99386.63;;;3.97;74.53
63204;BME280;49297;43.210;27.914;2023-12-22T03:58:16;99390.13;;;3.98;74.01
63204;BME280;49297;43.210;27.914;2023-12-22T04:00:41;99389.78;;;3.91;73.68
63204;BME280;49297;43.210;27.914;2023-12-22T04:03:09;99379.56;;;3.88;73.13
63204;BME280;49297;43.210;27.914;2023-12-22T04:05:34;99384.78;;;3.88;73.66
63204;BME280;49297;43.210;27.914;2023-12-22T04:08:00;99380.53;;;3.87;73.11
63204;BME280;49297;43.210;27.914;2023-12-22T04:10:26;99376.94;;;3.88;73.17
63204;BME280;49297;43.210;27.914;2023-12-22T04:12:52;99376.25;;;3.86;73.16
63204;BME280;49297;43.210;27.914;2023-12-22T04:15:17;99374.03;;;3.81;73.38
63204;BME280;49297;43.210;27.914;2023-12-22T04:17:43;99377.69;;;3.79;73.34
63204;BME280;49297;43.210;27.914;2023-12-22T04:20:09;99382.25;;;3.77;72.95
63204;BME280;49297;43.210;27.914;2023-12-22T04:22:35;99383.19;;;3.76;73.09
63204;BME280;49297;43.210;27.914;2023-12-22T04:25:00;99377.25;;;3.74;72.62
63204;BME280;49297;43.210;27.914;2023-12-22T04:27:26;99375.31;;;3.76;72.73
63204;BME280;49297;43.210;27.914;2023-12-22T04:29:52;99382.00;;;3.80;72.83
63204;BME280;49297;43.210;27.914;2023-12-22T04:32:17;99380.44;;;3.77;72.39
63204;BME280;49297;43.210;27.914;2023-12-22T04:34:43;99376.75;;;3.80;72.30
63204;BME280;49297;43.210;27.914;2023-12-22T04:37:09;99381.03;;;3.81;71.78
63204;BME280;49297;43.210;27.914;2023-12-22T04:39:35;99381.53;;;3.75;71.11
63204;BME280;49297;43.210;27.914;2023-12-22T04:42:00;99368.56;;;3.73;71.17
63204;BME280;49297;43.210;27.914;2023-12-22T04:44:26;99360.03;;;3.71;71.81
63204;BME280;49297;43.210;27.914;2023-12-22T04:46:52;99364.16;;;3.74;72.04
63204;BME280;49297;43.210;27.914;2023-12-22T04:49:17;99368.00;;;3.70;71.88
63204;BME280;49297;43.210;27.914;2023-12-22T04:51:44;99363.97;;;3.66;71.70
63204;BME280;49297;43.210;27.914;2023-12-22T04:54:09;99357.31;;;3.61;71.98
63204;BME280;49297;43.210;27.914;2023-12-22T04:56:35;99358.41;;;3.59;71.64
63204;BME280;49297;43.210;27.914;2023-12-22T04:59:01;99332.94;;;3.61;71.98
63204;BME280;49297;43.210;27.914;2023-12-22T05:01:26;99328.66;;;3.60;72.46
63204;BME280;49297;43.210;27.914;2023-12-22T05:03:52;99341.38;;;3.65;72.17
63204;BME280;49297;43.210;27.914;2023-12-22T05:06:19;99336.38;;;3.61;72.53
63204;BME280;49297;43.210;27.914;2023-12-22T05:08:45;99343.84;;;3.66;72.44
63204;BME280;49297;43.210;27.914;2023-12-22T05:11:12;99341.47;;;3.63;72.75
63204;BME280;49297;43.210;27.914;2023-12-22T05:13:38;99341.72;;;3.60;72.46
63204;BME280;49297;43.210;27.914;2023-12-22T05:16:04;99341.88;;;3.58;72.61
63204;BME280;49297;43.210;27.914;2023-12-22T05:18:30;99332.13;;;3.60;73.33
63204;BME280;49297;43.210;27.914;2023-12-22T05:20:55;99336.50;;;3.60;72.73
63204;BME280;49297;43.210;27.914;2023-12-22T05:23:21;99335.19;;;3.66;72.93
63204;BME280;49297;43.210;27.914;2023-12-22T05:25:47;99342.06;;;3.67;72.77
63204;BME280;49297;43.210;27.914;2023-12-22T05:28:13;99345.06;;;3.62;72.39
63204;BME280;49297;43.210;27.914;2023-12-22T05:30:41;99351.97;;;3.63;72.65
63204;BME280;49297;43.210;27.914;2023-12-22T05:33:06;99355.09;;;3.57;72.14
63204;BME280;49297;43.210;27.914;2023-12-22T05:35:32;99344.63;;;3.57;72.71
63204;BME280;49297;43.210;27.914;2023-12-22T05:37:58;99347.13;;;3.58;73.13
63204;BME280;49297;43.210;27.914;2023-12-22T05:40:23;99343.28;;;3.62;72.64
63204;BME280;49297;43.210;27.914;2023-12-22T05:42:49;99346.59;;;3.65;73.08
63204;BME280;49297;43.210;27.914;2023-12-22T05:45:15;99337.66;;;3.67;72.85
63204;BME280;49297;43.210;27.914;2023-12-22T05:47:41;99341.13;;;3.68;73.03
63204;BME280;49297;43.210;27.914;2023-12-22T05:50:07;99345.25;;;3.70;73.38
63204;BME280;49297;43.210;27.914;2023-12-22T05:52:33;99339.78;;;3.73;72.85
63204;BME280;49297;43.210;27.914;2023-12-22T05:54:59;99340.47;;;3.75;72.89
63204;BME280;49297;43.210;27.914;2023-12-22T05:57:25;99341.16;;;3.77;73.26
63204;BME280;49297;43.210;27.914;2023-12-22T05:59:51;99333.06;;;3.80;72.68
63204;BME280;49297;43.210;27.914;2023-12-22T06:02:17;99341.16;;;3.77;72.94
63204;BME280;49297;43.210;27.914;2023-12-22T06:04:43;99336.50;;;3.81;72.91
63204;BME280;49297;43.210;27.914;2023-12-22T06:07:10;99330.09;;;3.85;73.24
63204;BME280;49297;43.210;27.914;2023-12-22T06:09:36;99335.03;;;3.88;72.91
63204;BME280;49297;43.210;27.914;2023-12-22T06:12:02;99341.13;;;3.89;72.51
63204;BME280;49297;43.210;27.914;2023-12-22T06:14:28;99340.34;;;3.98;72.80
63204;BME280;49297;43.210;27.914;2023-12-22T06:16:54;99344.94;;;4.06;72.98
63204;BME280;49297;43.210;27.914;2023-12-22T06:19:22;99337.91;;;4.06;72.09
63204;BME280;49297;43.210;27.914;2023-12-22T06:21:50;99337.66;;;4.09;72.21
63204;BME280;49297;43.210;27.914;2023-12-22T06:24:16;99325.91;;;4.04;72.01
63204;BME280;49297;43.210;27.914;2023-12-22T06:26:42;99329.22;;;4.06;71.92
63204;BME280;49297;43.210;27.914;2023-12-22T06:29:08;99325.13;;;4.13;72.03
63204;BME280;49297;43.210;27.914;2023-12-22T06:31:35;99329.00;;;4.18;72.13
63204;BME280;49297;43.210;27.914;2023-12-22T06:34:00;99325.31;;;4.21;72.24
63204;BME280;49297;43.210;27.914;2023-12-22T06:36:28;99322.16;;;4.27;71.44
63204;BME280;49297;43.210;27.914;2023-12-22T06:38:55;99311.69;;;4.27;71.61
63204;BME280;49297;43.210;27.914;2023-12-22T06:41:27;99310.88;;;4.36;71.75
63204;BME280;49297;43.210;27.914;2023-12-22T06:44:00;99306.63;;;4.45;71.45
63204;BME280;49297;43.210;27.914;2023-12-22T06:46:27;99302.53;;;4.52;71.43
63204;BME280;49297;43.210;27.914;2023-12-22T06:48:54;99303.09;;;4.56;71.46
63204;BME280;49297;43.210;27.914;2023-12-22T06:51:25;99300.63;;;4.64;71.21
63204;BME280;49297;43.210;27.914;2023-12-22T06:53:51;99298.47;;;4.79;70.74
63204;BME280;49297;43.210;27.914;2023-12-22T06:56:19;99302.06;;;4.88;70.38
63204;BME280;49297;43.210;27.914;2023-12-22T06:58:46;99295.19;;;4.96;69.36
63204;BME280;49297;43.210;27.914;2023-12-22T07:01:27;99295.88;;;4.99;69.31
63204;BME280;49297;43.210;27.914;2023-12-22T07:03:53;99287.19;;;4.98;69.44
63204;BME280;49297;43.210;27.914;2023-12-22T07:06:20;99289.53;;;5.01;69.84
63204;BME280;49297;43.210;27.914;2023-12-22T07:14:11;99290.34;;;5.31;68.65
63204;BME280;49297;43.210;27.914;2023-12-22T07:16:37;99289.13;;;5.35;68.24
63204;BME280;49297;43.210;27.914;2023-12-22T07:19:04;99286.22;;;5.38;68.11
63204;BME280;49297;43.210;27.914;2023-12-22T07:21:30;99275.16;;;5.44;68.29
63204;BME280;49297;43.210;27.914;2023-12-22T07:23:56;99279.84;;;5.50;68.27
63204;BME280;49297;43.210;27.914;2023-12-22T07:26:23;99272.13;;;5.59;67.69
63204;BME280;49297;43.210;27.914;2023-12-22T07:28:52;99268.91;;;5.65;67.56
63204;BME280;49297;43.210;27.914;2023-12-22T07:31:18;99261.31;;;5.71;67.46
63204;BME280;49297;43.210;27.914;2023-12-22T07:33:44;99266.13;;;5.76;66.72
63204;BME280;49297;43.210;27.914;2023-12-22T07:36:10;99262.66;;;5.85;67.26
63204;BME280;49297;43.210;27.914;2023-12-22T07:38:37;99256.13;;;5.89;66.82
63204;BME280;49297;43.210;27.914;2023-12-22T07:41:04;99257.25;;;5.97;66.71
63204;BME280;49297;43.210;27.914;2023-12-22T07:43:31;99257.78;;;6.00;66.27
63204;BME280;49297;43.210;27.914;2023-12-22T07:45:57;99248.81;;;6.03;66.72
63204;BME280;49297;43.210;27.914;2023-12-22T07:48:23;99249.75;;;6.12;66.55
63204;BME280;49297;43.210;27.914;2023-12-22T07:50:49;99254.13;;;6.21;65.78
63204;BME280;49297;43.210;27.914;2023-12-22T07:53:15;99246.78;;;6.24;65.16
63204;BME280;49297;43.210;27.914;2023-12-22T07:55:44;99256.31;;;6.25;65.74
63204;BME280;49297;43.210;27.914;2023-12-22T07:58:10;99258.50;;;6.30;65.42
63204;BME280;49297;43.210;27.914;2023-12-22T08:00:36;99253.78;;;6.34;65.75
63204;BME280;49297;43.210;27.914;2023-12-22T08:03:02;99263.56;;;6.41;65.19
63204;BME280;49297;43.210;27.914;2023-12-22T08:05:28;99267.41;;;6.47;65.58
63204;BME280;49297;43.210;27.914;2023-12-22T08:07:56;99273.59;;;6.56;65.56
63204;BME280;49297;43.210;27.914;2023-12-22T08:12:57;99285.16;;;6.73;65.49
63204;BME280;49297;43.210;27.914;2023-12-22T08:15:23;99294.63;;;6.83;65.16
63204;BME280;49297;43.210;27.914;2023-12-22T08:17:49;99289.91;;;6.87;65.01
63204;BME280;49297;43.210;27.914;2023-12-22T08:20:19;99292.09;;;6.92;65.14
63204;BME280;49297;43.210;27.914;2023-12-22T08:51:27;99251.50;;;7.12;67.06
63204;BME280;49297;43.210;27.914;2023-12-22T08:53:54;99242.31;;;7.16;65.13
63204;BME280;49297;43.210;27.914;2023-12-22T08:56:24;99241.41;;;7.26;62.82
63204;BME280;49297;43.210;27.914;2023-12-22T08:58:53;99235.38;;;7.33;61.77
63204;BME280;49297;43.210;27.914;2023-12-22T09:01:22;99223.41;;;7.39;60.43
63204;BME280;49297;43.210;27.914;2023-12-22T09:03:48;99215.06;;;7.43;60.64
63204;BME280;49297;43.210;27.914;2023-12-22T09:06:18;99214.44;;;7.50;60.45
63204;BME280;49297;43.210;27.914;2023-12-22T09:08:44;99197.03;;;7.57;59.94
63204;BME280;49297;43.210;27.914;2023-12-22T09:11:15;99207.25;;;7.60;60.21
63204;BME280;49297;43.210;27.914;2023-12-22T09:13:42;99210.56;;;7.62;59.79
63204;BME280;49297;43.210;27.914;2023-12-22T09:16:08;99199.38;;;7.68;59.32
63204;BME280;49297;43.210;27.914;2023-12-22T09:18:35;99202.91;;;7.77;59.26
63204;BME280;49297;43.210;27.914;2023-12-22T09:21:03;99196.22;;;7.82;59.01
63204;BME280;49297;43.210;27.914;2023-12-22T09:23:29;99195.06;;;7.85;58.79
63204;BME280;49297;43.210;27.914;2023-12-22T09:25:55;99182.91;;;7.92;59.08
63204;BME280;49297;43.210;27.914;2023-12-22T09:28:20;99191.50;;;8.03;59.41
63204;BME280;49297;43.210;27.914;2023-12-22T09:30:46;99192.69;;;8.08;59.93
63204;BME280;49297;43.210;27.914;2023-12-22T09:33:12;99186.25;;;8.11;61.26
63204;BME280;49297;43.210;27.914;2023-12-22T09:35:38;99198.28;;;8.05;61.65
63204;BME280;49297;43.210;27.914;2023-12-22T09:38:08;99179.81;;;7.97;62.54
63204;BME280;49297;43.210;27.914;2023-12-22T09:40:35;99172.50;;;7.91;62.41
63204;BME280;49297;43.210;27.914;2023-12-22T09:43:02;99169.34;;;7.79;62.98
63204;BME280;49297;43.210;27.914;2023-12-22T09:45:30;99161.53;;;7.69;63.50
63204;BME280;49297;43.210;27.914;2023-12-22T09:47:56;99156.06;;;7.62;64.77
63204;BME280;49297;43.210;27.914;2023-12-22T09:50:24;99149.00;;;7.63;64.87
63204;BME280;49297;43.210;27.914;2023-12-22T09:52:51;99142.59;;;7.66;64.76
63204;BME280;49297;43.210;27.914;2023-12-22T09:55:18;99140.94;;;7.65;64.63
63204;BME280;49297;43.210;27.914;2023-12-22T09:57:48;99144.41;;;7.65;65.42
63204;BME280;49297;43.210;27.914;2023-12-22T10:00:15;99137.84;;;7.69;65.18
63204;BME280;49297;43.210;27.914;2023-12-22T10:02:41;99142.16;;;7.78;65.29
63204;BME280;49297;43.210;27.914;2023-12-22T10:05:09;99139.06;;;7.83;64.75
63204;BME280;49297;43.210;27.914;2023-12-22T10:07:36;99147.66;;;7.93;64.42
63204;BME280;49297;43.210;27.914;2023-12-22T10:10:03;99147.22;;;8.06;63.90
63204;BME280;49297;43.210;27.914;2023-12-22T10:12:31;99135.34;;;8.10;63.15
63204;BME280;49297;43.210;27.914;2023-12-22T10:15:00;99124.69;;;8.20;62.53
63204;BME280;49297;43.210;27.914;2023-12-22T10:17:26;99129.66;;;8.31;62.08
63204;BME280;49297;43.210;27.914;2023-12-22T10:19:52;99116.84;;;8.45;61.18
63204;BME280;49297;43.210;27.914;2023-12-22T10:22:18;99120.81;;;8.49;60.74
63204;BME280;49297;43.210;27.914;2023-12-22T10:24:47;99120.00;;;8.56;59.97
63204;BME280;49297;43.210;27.914;2023-12-22T10:27:14;99110.44;;;8.64;59.52
63204;BME280;49297;43.210;27.914;2023-12-22T10:29:40;99110.44;;;8.72;59.59
63204;BME280;49297;43.210;27.914;2023-12-22T10:32:07;99111.94;;;8.83;59.10
63204;BME280;49297;43.210;27.914;2023-12-22T10:34:34;99100.22;;;8.93;58.60
63204;BME280;49297;43.210;27.914;2023-12-22T10:37:01;99093.28;;;9.01;58.12
63204;BME280;49297;43.210;27.914;2023-12-22T10:39:31;99077.94;;;9.04;58.52
63204;BME280;49297;43.210;27.914;2023-12-22T10:41:58;99068.34;;;9.11;58.34
63204;BME280;49297;43.210;27.914;2023-12-22T10:44:28;99078.72;;;9.21;57.26
63204;BME280;49297;43.210;27.914;2023-12-22T10:46:54;99069.28;;;9.27;56.64
63204;BME280;49297;43.210;27.914;2023-12-22T10:49:21;99070.44;;;9.32;55.94
63204;BME280;49297;43.210;27.914;2023-12-22T10:51:47;99062.50;;;9.41;56.14
63204;BME280;49297;43.210;27.914;2023-12-22T10:54:13;99065.59;;;9.52;55.73
63204;BME280;49297;43.210;27.914;2023-12-22T10:56:40;99060.28;;;9.61;54.98
63204;BME280;49297;43.210;27.914;2023-12-22T10:59:06;99061.25;;;9.68;54.12
63204;BME280;49297;43.210;27.914;2023-12-22T11:01:35;99057.91;;;9.74;54.29
63204;BME280;49297;43.210;27.914;2023-12-22T11:04:09;99059.69;;;9.82;54.27
63204;BME280;49297;43.210;27.914;2023-12-22T11:06:41;99060.47;;;9.90;54.50
63204;BME280;49297;43.210;27.914;2023-12-22T11:09:08;99054.34;;;9.90;52.82
63204;BME280;49297;43.210;27.914;2023-12-22T11:11:38;99056.34;;;9.88;52.89
63204;BME280;49297;43.210;27.914;2023-12-22T11:14:06;99059.00;;;9.88;53.00
63204;BME280;49297;43.210;27.914;2023-12-22T11:16:34;99057.81;;;9.90;53.41
63204;BME280;49297;43.210;27.914;2023-12-22T11:19:04;99061.31;;;9.91;53.29
63204;BME280;49297;43.210;27.914;2023-12-22T11:21:30;99053.53;;;9.89;53.46
63204;BME280;49297;43.210;27.914;2023-12-22T11:23:57;99054.53;;;9.88;53.11
63204;BME280;49297;43.210;27.914;2023-12-22T11:26:24;99049.28;;;9.80;53.44
63204;BME280;49297;43.210;27.914;2023-12-22T11:28:52;99057.03;;;9.82;53.38
63204;BME280;49297;43.210;27.914;2023-12-22T11:31:18;99059.03;;;9.80;53.53
63204;BME280;49297;43.210;27.914;2023-12-22T11:33:47;99052.13;;;9.79;53.65
63204;BME280;49297;43.210;27.914;2023-12-22T11:36:14;99051.09;;;9.80;53.25
63204;BME280;49297;43.210;27.914;2023-12-22T11:38:41;99049.97;;;9.74;53.23
63204;BME280;49297;43.210;27.914;2023-12-22T11:41:17;99066.16;;;9.79;53.11
63204;BME280;49297;43.210;27.914;2023-12-22T11:43:45;99061.97;;;9.85;52.80
63204;BME280;49297;43.210;27.914;2023-12-22T11:46:12;99063.28;;;9.89;52.98
63204;BME280;49297;43.210;27.914;2023-12-22T11:48:46;99057.16;;;9.88;53.91
63204;BME280;49297;43.210;27.914;2023-12-22T11:51:13;99037.16;;;9.94;53.62
63204;BME280;49297;43.210;27.914;2023-12-22T11:53:42;99040.72;;;10.01;53.96
63204;BME280;49297;43.210;27.914;2023-12-22T11:56:09;99035.09;;;10.04;54.79
63204;BME280;49297;43.210;27.914;2023-12-22T11:58:46;99045.97;;;10.09;54.82
63204;BME280;49297;43.210;27.914;2023-12-22T12:01:22;99032.03;;;10.16;54.38
63204;BME280;49297;43.210;27.914;2023-12-22T12:03:51;99027.06;;;10.21;55.30
63204;BME280;49297;43.210;27.914;2023-12-22T12:06:32;99027.00;;;10.29;54.69
63204;BME280;49297;43.210;27.914;2023-12-22T12:09:04;99030.34;;;10.31;54.64
63204;BME280;49297;43.210;27.914;2023-12-22T12:14:22;99021.97;;;10.42;53.46
63204;BME280;49297;43.210;27.914;2023-12-22T12:16:59;99011.84;;;10.46;53.60
63204;BME280;49297;43.210;27.914;2023-12-22T12:19:38;99013.16;;;10.50;53.46
63204;BME280;49297;43.210;27.914;2023-12-22T12:22:05;99000.56;;;10.52;53.06
63204;BME280;49297;43.210;27.914;2023-12-22T12:24:31;99006.16;;;10.57;53.47
63204;BME280;49297;43.210;27.914;2023-12-22T12:26:57;99001.16;;;10.62;53.93
63204;BME280;49297;43.210;27.914;2023-12-22T12:29:23;99006.69;;;10.67;53.51
63204;BME280;49297;43.210;27.914;2023-12-22T12:31:49;99003.69;;;10.71;54.16
63204;BME280;49297;43.210;27.914;2023-12-22T12:34:15;98996.94;;;10.68;53.75
63204;BME280;49297;43.210;27.914;2023-12-22T12:36:43;98994.66;;;10.65;53.11
63204;BME280;49297;43.210;27.914;2023-12-22T12:39:14;98995.47;;;10.65;53.83
63204;BME280;49297;43.210;27.914;2023-12-22T12:41:41;98988.91;;;10.61;53.94
63204;BME280;49297;43.210;27.914;2023-12-22T12:44:10;98986.44;;;10.60;54.81
63204;BME280;49297;43.210;27.914;2023-12-22T12:46:37;98978.84;;;10.57;55.42
63204;BME280;49297;43.210;27.914;2023-12-22T12:49:07;98977.84;;;10.58;55.29
63204;BME280;49297;43.210;27.914;2023-12-22T12:51:40;98972.91;;;10.55;55.81
63204;BME280;49297;43.210;27.914;2023-12-22T12:54:07;98979.75;;;10.49;56.18
63204;BME280;49297;43.210;27.914;2023-12-22T12:56:40;98970.53;;;10.45;56.26
63204;BME280;49297;43.210;27.914;2023-12-22T12:59:10;98975.81;;;10.45;56.41
63204;BME280;49297;43.210;27.914;2023-12-22T13:01:43;98973.53;;;10.42;56.18
63204;BME280;49297;43.210;27.914;2023-12-22T13:04:10;98983.31;;;10.41;56.13
63204;BME280;49297;43.210;27.914;2023-12-22T13:06:43;98974.72;;;10.39;56.43
63204;BME280;49297;43.210;27.914;2023-12-22T13:09:09;98980.38;;;10.36;56.02
63204;BME280;49297;43.210;27.914;2023-12-22T13:11:36;98990.94;;;10.36;56.29
63204;BME280;49297;43.210;27.914;2023-12-22T13:14:02;98987.03;;;10.32;55.70
63204;BME280;49297;43.210;27.914;2023-12-22T13:16:30;98982.84;;;10.29;56.05
63204;BME280;49297;43.210;27.914;2023-12-22T13:18:57;98993.63;;;10.28;56.19
63204;BME280;49297;43.210;27.914;2023-12-22T13:21:25;98996.91;;;10.30;56.65
63204;BME280;49297;43.210;27.914;2023-12-22T13:26:37;98987.50;;;10.36;57.11
63204;BME280;49297;43.210;27.914;2023-12-22T13:29:04;98980.38;;;10.36;57.89
63204;BME280;49297;43.210;27.914;2023-12-22T13:31:31;98998.78;;;10.44;57.82
63204;BME280;49297;43.210;27.914;2023-12-22T13:34:00;99000.28;;;10.47;57.64
63204;BME280;49297;43.210;27.914;2023-12-22T13:36:26;99007.19;;;10.48;58.06
63204;BME280;49297;43.210;27.914;2023-12-22T13:38:52;99010.50;;;10.50;57.82
63204;BME280;49297;43.210;27.914;2023-12-22T13:41:19;99026.69;;;10.55;57.82